createdAt,value
2023-04-15T00:00:02.419Z,54.7718264262105
2023-04-15T00:15:02.020Z,55.74026384284567
2023-04-15T00:30:01.604Z,56.40075389603783
2023-04-15T00:45:02.198Z,55.610989921439966
2023-04-15T01:00:01.831Z,56.74075376669125
2023-04-15T01:15:02.456Z,56.03846473058154
2023-04-15T01:30:02.062Z,56.71061190424638
2023-04-15T01:45:01.744Z,56.6754114416411
2023-04-15T02:00:02.371Z,56.44520879977656
2023-04-15T02:15:02.014Z,56.341073589945616
2023-04-15T02:30:01.744Z,56.49668764400049
2023-04-15T02:45:02.372Z,56.43667967182494
2023-04-15T03:00:02.039Z,56.70800761368975
2023-04-15T03:15:01.668Z,56.667259729321046
2023-04-15T03:30:02.347Z,56.609965482566174
2023-04-15T03:45:01.975Z,56.74643223438395
2023-04-15T04:00:01.670Z,56.86150583117829
2023-04-15T04:15:02.339Z,56.91387572720567
2023-04-15T04:30:01.622Z,57.28948363636665
2023-04-15T04:45:02.243Z,60.433656674658586
2023-04-15T05:00:01.942Z,63.55019892983829
2023-04-15T05:15:01.599Z,64.25602213216607
2023-04-15T05:30:02.256Z,65.27926454771611
2023-04-15T05:45:01.892Z,66.68262762502899
2023-04-15T06:00:02.522Z,67.33562641214647
2023-04-15T06:15:02.151Z,67.13598637832332
2023-04-15T06:30:01.826Z,67.87919560686103
2023-04-15T06:45:02.385Z,68.06549309149361
2023-04-15T07:00:02.184Z,67.50792225908522
2023-04-15T07:15:01.798Z,68.10759509240539
2023-04-15T07:30:02.467Z,69.99249706561602
2023-04-15T07:45:02.088Z,70.22258774847128
2023-04-15T08:00:01.848Z,72.15735126986563
2023-04-15T08:15:02.475Z,72.05807055798194
2023-04-15T08:30:04.591Z,71.77627278902908
2023-04-15T08:45:01.786Z,72.62321176634528
2023-04-15T09:00:04.722Z,73.47798552252281
2023-04-15T09:15:02.132Z,73.77228231622853
2023-04-15T09:30:01.793Z,74.22393636384703
2023-04-15T09:45:02.369Z,74.6387822494069
2023-04-15T10:00:01.979Z,74.34891635088697
2023-04-15T10:15:01.607Z,74.81529911711762
2023-04-15T10:30:02.238Z,75.24453137821165
2023-04-15T10:45:01.854Z,75.28007600299725
2023-04-15T11:00:02.492Z,75.80456195008283
2023-04-15T11:15:02.145Z,76.0142933572782
2023-04-15T11:30:01.846Z,74.6315307707524
2023-04-15T11:45:02.417Z,75.85255097856002
2023-04-15T12:00:02.034Z,75.77561662756128
2023-04-15T12:15:01.628Z,74.962689121699
2023-04-15T12:30:02.267Z,75.8947299424622
2023-04-15T12:45:01.892Z,74.85698520828889
2023-04-15T13:00:02.564Z,74.63059187161993
2023-04-15T13:15:04.345Z,74.49301405256858
2023-04-15T13:30:02.203Z,75.51219320288392
2023-04-15T13:45:01.832Z,76.12917952617559
2023-04-15T14:00:02.437Z,76.42904535104229
2023-04-15T14:15:02.030Z,77.62992834442326
2023-04-15T14:30:01.652Z,76.9541005810369
2023-04-15T14:45:02.281Z,77.44734383812025
2023-04-15T15:00:02.136Z,76.91543618759877
2023-04-15T15:15:04.993Z,76.26359930530178
2023-04-15T15:30:02.280Z,76.81702222274005
2023-04-15T15:45:02.002Z,76.81840911734277
2023-04-15T16:00:11.474Z,77.53713915894855
2023-04-15T16:15:02.188Z,76.71984864266393
2023-04-15T16:30:01.855Z,77.06150591725226
2023-04-15T16:45:02.469Z,76.62177225849409
2023-04-15T17:00:02.051Z,77.02458088160938
2023-04-15T17:15:01.752Z,76.01006500073939
2023-04-15T17:30:02.511Z,75.80671455166501
2023-04-15T17:45:02.089Z,75.79022880203874
2023-04-15T18:00:01.676Z,75.74321936515136
2023-04-15T18:15:02.320Z,75.23866445798043
2023-04-15T18:30:02.046Z,75.9213282101173
2023-04-15T18:45:01.692Z,75.56170141559697
2023-04-15T19:00:02.298Z,75.49419985882963
2023-04-15T19:15:01.878Z,75.46795540142261
2023-04-15T19:30:02.523Z,75.61926848274406
2023-04-15T19:45:02.195Z,75.79104121629767
2023-04-15T20:00:01.797Z,75.56658466437982
2023-04-15T20:15:02.491Z,75.43511632374576
2023-04-15T20:30:02.161Z,75.43116664401387
2023-04-15T20:45:01.823Z,75.46159977164216
2023-04-15T21:00:02.512Z,74.97374076131955
2023-04-15T21:15:02.219Z,75.44569287165183
2023-04-15T21:30:01.893Z,74.73071061359289
2023-04-15T21:45:02.486Z,74.65732045565491
2023-04-15T22:00:02.241Z,74.90231337281683
2023-04-15T22:15:01.921Z,74.89386994687429
2023-04-15T22:30:01.568Z,74.68998020938857
2023-04-15T22:45:02.191Z,74.4312884181861
2023-04-15T23:00:01.913Z,74.75136725054723
2023-04-15T23:15:01.641Z,74.38554346267502
2023-04-15T23:30:02.358Z,74.68066612885579
2023-04-15T23:45:01.970Z,74.07190942782479
